sensor_id;sensor_type;location;lat;lon;timestamp;P1;durP1;ratioP1;P2;durP2;ratioP2
64907;SDS011;64365;-1.756;110.040;2023-03-23T00:02:11;12.32;;;7.30;;
64907;SDS011;64365;-1.756;110.040;2023-03-23T00:04:38;14.95;;;6.90;;
64907;SDS011;64365;-1.756;110.040;2023-03-23T00:07:04;17.17;;;7.07;;
64907;SDS011;64365;-1.756;110.040;2023-03-23T00:09:31;13.52;;;7.30;;
64907;SDS011;64365;-1.756;110.040;2023-03-23T00:12:00;10.38;;;6.70;;
64907;SDS011;64365;-1.756;110.040;2023-03-23T00:14:30;11.35;;;6.13;;
64907;SDS011;64365;-1.756;110.040;2023-03-23T00:17:05;11.07;;;6.53;;
64907;SDS011;64365;-1.756;110.040;2023-03-23T00:19:34;9.80;;;6.63;;
64907;SDS011;64365;-1.756;110.040;2023-03-23T00:22:11;15.23;;;7.03;;
64907;SDS011;64365;-1.756;110.040;2023-03-23T00:24:39;13.35;;;6.88;;
64907;SDS011;64365;-1.756;110.040;2023-03-23T00:27:07;8.77;;;6.32;;
64907;SDS011;64365;-1.756;110.040;2023-03-23T00:29:37;9.00;;;5.88;;
64907;SDS011;64365;-1.756;110.040;2023-03-23T00:32:04;12.15;;;5.60;;
64907;SDS011;64365;-1.756;110.040;2023-03-23T00:34:31;8.02;;;5.60;;
64907;SDS011;64365;-1.756;110.040;2023-03-23T00:36:58;12.77;;;6.43;;
64907;SDS011;64365;-1.756;110.040;2023-03-23T00:39:26;15.52;;;6.28;;
64907;SDS011;64365;-1.756;110.040;2023-03-23T00:41:53;10.85;;;6.30;;
64907;SDS011;64365;-1.756;110.040;2023-03-23T00:44:27;11.75;;;6.07;;
64907;SDS011;64365;-1.756;110.040;2023-03-23T00:46:55;9.25;;;5.97;;
64907;SDS011;64365;-1.756;110.040;2023-03-23T00:49:23;8.50;;;5.93;;
64907;SDS011;64365;-1.756;110.040;2023-03-23T00:51:50;14.52;;;6.30;;
64907;SDS011;64365;-1.756;110.040;2023-03-23T00:54:18;9.63;;;5.68;;
64907;SDS011;64365;-1.756;110.040;2023-03-23T00:56:46;12.90;;;6.53;;
64907;SDS011;64365;-1.756;110.040;2023-03-23T00:59:13;9.57;;;5.22;;
64907;SDS011;64365;-1.756;110.040;2023-03-23T01:01:41;14.05;;;6.10;;
64907;SDS011;64365;-1.756;110.040;2023-03-23T01:04:08;10.70;;;5.68;;
64907;SDS011;64365;-1.756;110.040;2023-03-23T01:06:37;11.38;;;5.50;;
64907;SDS011;64365;-1.756;110.040;2023-03-23T01:09:05;11.25;;;5.35;;
64907;SDS011;64365;-1.756;110.040;2023-03-23T01:11:33;8.40;;;5.07;;
64907;SDS011;64365;-1.756;110.040;2023-03-23T01:14:00;9.13;;;5.45;;
64907;SDS011;64365;-1.756;110.040;2023-03-23T01:16:27;11.45;;;5.28;;
64907;SDS011;64365;-1.756;110.040;2023-03-23T01:18:55;9.15;;;5.10;;
64907;SDS011;64365;-1.756;110.040;2023-03-23T01:21:22;10.00;;;5.03;;
64907;SDS011;64365;-1.756;110.040;2023-03-23T01:23:50;9.52;;;5.18;;
64907;SDS011;64365;-1.756;110.040;2023-03-23T01:26:17;7.68;;;4.88;;
64907;SDS011;64365;-1.756;110.040;2023-03-23T01:28:46;8.68;;;5.82;;
64907;SDS011;64365;-1.756;110.040;2023-03-23T01:31:13;9.40;;;5.15;;
64907;SDS011;64365;-1.756;110.040;2023-03-23T01:33:42;8.85;;;4.90;;
64907;SDS011;64365;-1.756;110.040;2023-03-23T01:36:11;9.70;;;5.07;;
64907;SDS011;64365;-1.756;110.040;2023-03-23T01:38:40;9.13;;;4.72;;
64907;SDS011;64365;-1.756;110.040;2023-03-23T01:41:08;12.68;;;5.72;;
64907;SDS011;64365;-1.756;110.040;2023-03-23T01:43:35;8.18;;;4.85;;
64907;SDS011;64365;-1.756;110.040;2023-03-23T01:46:02;8.77;;;5.43;;
64907;SDS011;64365;-1.756;110.040;2023-03-23T01:48:29;8.73;;;4.47;;
64907;SDS011;64365;-1.756;110.040;2023-03-23T01:51:02;7.20;;;4.60;;
64907;SDS011;64365;-1.756;110.040;2023-03-23T01:53:35;11.05;;;5.30;;
64907;SDS011;64365;-1.756;110.040;2023-03-23T01:56:04;7.50;;;4.82;;
64907;SDS011;64365;-1.756;110.040;2023-03-23T01:58:33;9.27;;;4.90;;
64907;SDS011;64365;-1.756;110.040;2023-03-23T02:01:04;11.15;;;4.65;;
64907;SDS011;64365;-1.756;110.040;2023-03-23T02:03:32;6.95;;;5.00;;
64907;SDS011;64365;-1.756;110.040;2023-03-23T02:06:02;5.70;;;4.47;;
64907;SDS011;64365;-1.756;110.040;2023-03-23T02:08:29;8.05;;;4.75;;
64907;SDS011;64365;-1.756;110.040;2023-03-23T02:10:58;8.18;;;4.80;;
64907;SDS011;64365;-1.756;110.040;2023-03-23T02:13:26;6.53;;;5.18;;
64907;SDS011;64365;-1.756;110.040;2023-03-23T02:15:55;9.38;;;5.00;;
64907;SDS011;64365;-1.756;110.040;2023-03-23T02:24:57;9.63;;;4.60;;
64907;SDS011;64365;-1.756;110.040;2023-03-23T02:27:43;6.50;;;4.43;;
64907;SDS011;64365;-1.756;110.040;2023-03-23T02:30:31;7.80;;;4.50;;
64907;SDS011;64365;-1.756;110.040;2023-03-23T02:33:14;10.18;;;4.20;;
64907;SDS011;64365;-1.756;110.040;2023-03-23T02:35:56;9.45;;;5.13;;
64907;SDS011;64365;-1.756;110.040;2023-03-23T02:38:27;6.70;;;4.78;;
64907;SDS011;64365;-1.756;110.040;2023-03-23T02:40:59;8.75;;;5.10;;
64907;SDS011;64365;-1.756;110.040;2023-03-23T02:43:30;10.80;;;4.60;;
64907;SDS011;64365;-1.756;110.040;2023-03-23T02:46:00;11.07;;;5.55;;
64907;SDS011;64365;-1.756;110.040;2023-03-23T02:48:33;6.63;;;5.05;;
64907;SDS011;64365;-1.756;110.040;2023-03-23T02:51:02;9.20;;;5.03;;
64907;SDS011;64365;-1.756;110.040;2023-03-23T02:53:31;12.10;;;4.70;;
64907;SDS011;64365;-1.756;110.040;2023-03-23T02:56:00;8.40;;;4.63;;
64907;SDS011;64365;-1.756;110.040;2023-03-23T02:58:30;8.77;;;5.05;;
64907;SDS011;64365;-1.756;110.040;2023-03-23T03:00:56;8.23;;;4.68;;
64907;SDS011;64365;-1.756;110.040;2023-03-23T03:03:25;7.43;;;4.85;;
64907;SDS011;64365;-1.756;110.040;2023-03-23T03:05:55;9.95;;;4.88;;
64907;SDS011;64365;-1.756;110.040;2023-03-23T03:08:35;7.82;;;4.47;;
64907;SDS011;64365;-1.756;110.040;2023-03-23T03:11:10;10.05;;;5.03;;
64907;SDS011;64365;-1.756;110.040;2023-03-23T03:13:41;8.85;;;4.35;;
64907;SDS011;64365;-1.756;110.040;2023-03-23T03:16:16;8.90;;;4.18;;
64907;SDS011;64365;-1.756;110.040;2023-03-23T03:18:51;8.90;;;4.00;;
64907;SDS011;64365;-1.756;110.040;2023-03-23T03:21:25;7.20;;;4.07;;
64907;SDS011;64365;-1.756;110.040;2023-03-23T03:23:55;8.27;;;4.13;;
64907;SDS011;64365;-1.756;110.040;2023-03-23T03:26:26;7.78;;;3.60;;
64907;SDS011;64365;-1.756;110.040;2023-03-23T03:28:54;7.85;;;4.30;;
64907;SDS011;64365;-1.756;110.040;2023-03-23T03:31:22;6.90;;;4.25;;
64907;SDS011;64365;-1.756;110.040;2023-03-23T03:33:52;16.35;;;4.43;;
64907;SDS011;64365;-1.756;110.040;2023-03-23T03:36:20;9.10;;;4.00;;
64907;SDS011;64365;-1.756;110.040;2023-03-23T03:38:51;11.13;;;4.03;;
64907;SDS011;64365;-1.756;110.040;2023-03-23T03:41:19;12.55;;;4.13;;
64907;SDS011;64365;-1.756;110.040;2023-03-23T03:43:46;9.55;;;4.03;;
64907;SDS011;64365;-1.756;110.040;2023-03-23T03:46:12;7.03;;;3.92;;
64907;SDS011;64365;-1.756;110.040;2023-03-23T03:48:39;8.88;;;3.80;;
64907;SDS011;64365;-1.756;110.040;2023-03-23T03:51:05;9.98;;;4.72;;
64907;SDS011;64365;-1.756;110.040;2023-03-23T03:53:33;9.95;;;3.92;;
64907;SDS011;64365;-1.756;110.040;2023-03-23T03:56:02;11.98;;;4.70;;
64907;SDS011;64365;-1.756;110.040;2023-03-23T03:58:30;9.18;;;4.25;;
64907;SDS011;64365;-1.756;110.040;2023-03-23T04:00:57;9.02;;;3.47;;
64907;SDS011;64365;-1.756;110.040;2023-03-23T04:03:25;7.70;;;4.28;;
64907;SDS011;64365;-1.756;110.040;2023-03-23T04:05:52;11.45;;;4.07;;
64907;SDS011;64365;-1.756;110.040;2023-03-23T04:08:20;10.27;;;4.28;;
64907;SDS011;64365;-1.756;110.040;2023-03-23T04:10:47;7.95;;;4.35;;
64907;SDS011;64365;-1.756;110.040;2023-03-23T04:13:15;7.57;;;3.85;;
64907;SDS011;64365;-1.756;110.040;2023-03-23T04:15:43;7.32;;;4.35;;
64907;SDS011;64365;-1.756;110.040;2023-03-23T04:18:10;9.25;;;4.43;;
64907;SDS011;64365;-1.756;110.040;2023-03-23T04:20:37;10.88;;;5.60;;
64907;SDS011;64365;-1.756;110.040;2023-03-23T04:23:04;11.95;;;4.78;;
64907;SDS011;64365;-1.756;110.040;2023-03-23T04:25:31;9.02;;;3.63;;
64907;SDS011;64365;-1.756;110.040;2023-03-23T04:27:58;12.30;;;3.90;;
64907;SDS011;64365;-1.756;110.040;2023-03-23T04:30:27;9.32;;;3.42;;
64907;SDS011;64365;-1.756;110.040;2023-03-23T04:32:56;5.15;;;3.47;;
64907;SDS011;64365;-1.756;110.040;2023-03-23T04:35:26;7.57;;;3.45;;
64907;SDS011;64365;-1.756;110.040;2023-03-23T04:37:54;6.85;;;4.07;;
64907;SDS011;64365;-1.756;110.040;2023-03-23T04:40:21;9.30;;;4.43;;
64907;SDS011;64365;-1.756;110.040;2023-03-23T04:42:49;9.52;;;4.00;;
64907;SDS011;64365;-1.756;110.040;2023-03-23T04:45:18;11.60;;;4.15;;
64907;SDS011;64365;-1.756;110.040;2023-03-23T04:47:48;11.38;;;4.05;;
64907;SDS011;64365;-1.756;110.040;2023-03-23T04:50:22;8.68;;;4.28;;
64907;SDS011;64365;-1.756;110.040;2023-03-23T04:52:50;12.68;;;3.92;;
64907;SDS011;64365;-1.756;110.040;2023-03-23T04:55:19;8.73;;;4.45;;
64907;SDS011;64365;-1.756;110.040;2023-03-23T04:57:46;12.70;;;4.13;;
64907;SDS011;64365;-1.756;110.040;2023-03-23T05:00:13;11.90;;;4.63;;
64907;SDS011;64365;-1.756;110.040;2023-03-23T05:02:41;10.43;;;3.90;;
64907;SDS011;64365;-1.756;110.040;2023-03-23T05:05:10;15.18;;;4.22;;
64907;SDS011;64365;-1.756;110.040;2023-03-23T05:07:38;12.82;;;4.50;;
64907;SDS011;64365;-1.756;110.040;2023-03-23T05:10:05;12.10;;;5.13;;
64907;SDS011;64365;-1.756;110.040;2023-03-23T05:12:33;11.38;;;4.22;;
64907;SDS011;64365;-1.756;110.040;2023-03-23T05:15:00;12.90;;;4.10;;
64907;SDS011;64365;-1.756;110.040;2023-03-23T05:17:26;11.82;;;4.15;;
64907;SDS011;64365;-1.756;110.040;2023-03-23T05:19:55;13.23;;;4.28;;
64907;SDS011;64365;-1.756;110.040;2023-03-23T05:22:23;15.20;;;4.63;;
64907;SDS011;64365;-1.756;110.040;2023-03-23T05:24:52;11.52;;;4.03;;
64907;SDS011;64365;-1.756;110.040;2023-03-23T05:27:19;10.18;;;3.60;;
64907;SDS011;64365;-1.756;110.040;2023-03-23T05:29:45;12.02;;;4.18;;
64907;SDS011;64365;-1.756;110.040;2023-03-23T05:32:14;12.02;;;4.03;;
64907;SDS011;64365;-1.756;110.040;2023-03-23T05:34:41;12.05;;;4.55;;
64907;SDS011;64365;-1.756;110.040;2023-03-23T05:37:08;14.70;;;5.25;;
64907;SDS011;64365;-1.756;110.040;2023-03-23T05:39:38;11.57;;;4.35;;
64907;SDS011;64365;-1.756;110.040;2023-03-23T05:42:05;12.52;;;4.35;;
64907;SDS011;64365;-1.756;110.040;2023-03-23T05:44:32;27.10;;;5.18;;
64907;SDS011;64365;-1.756;110.040;2023-03-23T05:46:59;18.20;;;5.25;;
64907;SDS011;64365;-1.756;110.040;2023-03-23T05:49:26;14.73;;;5.43;;
64907;SDS011;64365;-1.756;110.040;2023-03-23T05:51:52;15.13;;;6.38;;
64907;SDS011;64365;-1.756;110.040;2023-03-23T05:54:19;12.77;;;5.80;;
64907;SDS011;64365;-1.756;110.040;2023-03-23T05:56:47;19.50;;;5.88;;
64907;SDS011;64365;-1.756;110.040;2023-03-23T05:59:14;15.18;;;5.72;;
64907;SDS011;64365;-1.756;110.040;2023-03-23T06:01:41;12.00;;;5.40;;
64907;SDS011;64365;-1.756;110.040;2023-03-23T06:04:08;12.68;;;5.85;;
64907;SDS011;64365;-1.756;110.040;2023-03-23T06:06:36;18.02;;;7.07;;
64907;SDS011;64365;-1.756;110.040;2023-03-23T06:09:03;14.80;;;6.43;;
64907;SDS011;64365;-1.756;110.040;2023-03-23T06:11:30;17.05;;;5.68;;
64907;SDS011;64365;-1.756;110.040;2023-03-23T06:13:58;11.95;;;5.88;;
64907;SDS011;64365;-1.756;110.040;2023-03-23T06:16:24;16.00;;;6.13;;
64907;SDS011;64365;-1.756;110.040;2023-03-23T06:18:51;13.05;;;5.78;;
64907;SDS011;64365;-1.756;110.040;2023-03-23T06:21:17;18.50;;;5.70;;
64907;SDS011;64365;-1.756;110.040;2023-03-23T06:23:44;16.25;;;5.65;;
64907;SDS011;64365;-1.756;110.040;2023-03-23T06:26:12;14.35;;;5.20;;
64907;SDS011;64365;-1.756;110.040;2023-03-23T06:28:41;14.65;;;5.97;;
64907;SDS011;64365;-1.756;110.040;2023-03-23T06:31:11;13.63;;;4.85;;
64907;SDS011;64365;-1.756;110.040;2023-03-23T06:33:39;16.50;;;5.32;;
64907;SDS011;64365;-1.756;110.040;2023-03-23T06:36:06;15.18;;;5.32;;
64907;SDS011;64365;-1.756;110.040;2023-03-23T06:38:33;10.10;;;4.97;;
64907;SDS011;64365;-1.756;110.040;2023-03-23T06:41:01;14.65;;;5.68;;
64907;SDS011;64365;-1.756;110.040;2023-03-23T06:43:27;14.60;;;5.10;;
64907;SDS011;64365;-1.756;110.040;2023-03-23T06:45:54;17.38;;;5.85;;
64907;SDS011;64365;-1.756;110.040;2023-03-23T06:48:22;14.05;;;6.45;;
64907;SDS011;64365;-1.756;110.040;2023-03-23T06:50:49;11.50;;;5.68;;
64907;SDS011;64365;-1.756;110.040;2023-03-23T06:53:15;13.30;;;5.38;;
64907;SDS011;64365;-1.756;110.040;2023-03-23T06:55:42;20.50;;;6.03;;
64907;SDS011;64365;-1.756;110.040;2023-03-23T06:58:09;11.80;;;5.35;;
64907;SDS011;64365;-1.756;110.040;2023-03-23T07:00:36;18.88;;;5.82;;
64907;SDS011;64365;-1.756;110.040;2023-03-23T07:03:03;13.63;;;5.68;;
64907;SDS011;64365;-1.756;110.040;2023-03-23T07:05:32;18.38;;;5.75;;
64907;SDS011;64365;-1.756;110.040;2023-03-23T07:07:59;15.88;;;6.57;;
64907;SDS011;64365;-1.756;110.040;2023-03-23T07:10:25;20.80;;;5.53;;
64907;SDS011;64365;-1.756;110.040;2023-03-23T07:12:52;15.02;;;6.25;;
64907;SDS011;64365;-1.756;110.040;2023-03-23T07:15:19;20.08;;;6.38;;
64907;SDS011;64365;-1.756;110.040;2023-03-23T07:17:46;15.43;;;6.03;;
64907;SDS011;64365;-1.756;110.040;2023-03-23T07:20:13;14.80;;;6.32;;
64907;SDS011;64365;-1.756;110.040;2023-03-23T07:22:41;19.92;;;6.95;;
64907;SDS011;64365;-1.756;110.040;2023-03-23T07:25:08;20.05;;;6.22;;
64907;SDS011;64365;-1.756;110.040;2023-03-23T07:27:35;14.30;;;6.55;;
64907;SDS011;64365;-1.756;110.040;2023-03-23T07:30:02;15.90;;;6.40;;
64907;SDS011;64365;-1.756;110.040;2023-03-23T07:32:29;21.45;;;6.15;;
64907;SDS011;64365;-1.756;110.040;2023-03-23T07:34:56;14.63;;;5.93;;
64907;SDS011;64365;-1.756;110.040;2023-03-23T07:37:23;15.93;;;6.68;;
64907;SDS011;64365;-1.756;110.040;2023-03-23T07:39:51;17.92;;;6.22;;
64907;SDS011;64365;-1.756;110.040;2023-03-23T07:42:18;17.63;;;6.15;;
64907;SDS011;64365;-1.756;110.040;2023-03-23T07:44:44;16.10;;;6.57;;
64907;SDS011;64365;-1.756;110.040;2023-03-23T07:47:11;15.70;;;6.43;;
64907;SDS011;64365;-1.756;110.040;2023-03-23T07:49:38;14.32;;;7.05;;
64907;SDS011;64365;-1.756;110.040;2023-03-23T07:52:04;15.95;;;5.93;;
64907;SDS011;64365;-1.756;110.040;2023-03-23T07:54:32;10.45;;;4.78;;
64907;SDS011;64365;-1.756;110.040;2023-03-23T07:57:00;20.15;;;5.32;;
64907;SDS011;64365;-1.756;110.040;2023-03-23T07:59:26;14.88;;;4.80;;
64907;SDS011;64365;-1.756;110.040;2023-03-23T08:01:53;17.23;;;5.55;;
64907;SDS011;64365;-1.756;110.040;2023-03-23T08:04:20;19.27;;;5.20;;
64907;SDS011;64365;-1.756;110.040;2023-03-23T08:06:46;16.17;;;4.90;;
64907;SDS011;64365;-1.756;110.040;2023-03-23T08:09:13;12.98;;;5.25;;
64907;SDS011;64365;-1.756;110.040;2023-03-23T08:11:40;15.90;;;4.75;;
64907;SDS011;64365;-1.756;110.040;2023-03-23T08:14:08;13.50;;;5.35;;
64907;SDS011;64365;-1.756;110.040;2023-03-23T08:16:35;15.50;;;4.82;;
64907;SDS011;64365;-1.756;110.040;2023-03-23T08:19:01;10.23;;;4.43;;
64907;SDS011;64365;-1.756;110.040;2023-03-23T08:21:29;17.02;;;5.18;;
64907;SDS011;64365;-1.756;110.040;2023-03-23T08:23:56;18.08;;;6.60;;
64907;SDS011;64365;-1.756;110.040;2023-03-23T08:26:22;13.35;;;4.70;;
64907;SDS011;64365;-1.756;110.040;2023-03-23T08:28:49;11.68;;;4.15;;
64907;SDS011;64365;-1.756;110.040;2023-03-23T08:31:17;13.05;;;4.55;;
64907;SDS011;64365;-1.756;110.040;2023-03-23T08:33:43;12.70;;;4.35;;
64907;SDS011;64365;-1.756;110.040;2023-03-23T08:36:11;13.52;;;4.57;;
64907;SDS011;64365;-1.756;110.040;2023-03-23T08:38:39;9.32;;;4.45;;
64907;SDS011;64365;-1.756;110.040;2023-03-23T08:41:05;12.00;;;4.85;;
64907;SDS011;64365;-1.756;110.040;2023-03-23T08:43:34;12.68;;;4.78;;
64907;SDS011;64365;-1.756;110.040;2023-03-23T08:46:01;17.38;;;5.10;;
64907;SDS011;64365;-1.756;110.040;2023-03-23T08:48:33;13.25;;;5.32;;
64907;SDS011;64365;-1.756;110.040;2023-03-23T08:51:00;15.65;;;5.25;;
64907;SDS011;64365;-1.756;110.040;2023-03-23T08:53:27;15.05;;;5.25;;
64907;SDS011;64365;-1.756;110.040;2023-03-23T08:55:55;17.75;;;4.72;;
64907;SDS011;64365;-1.756;110.040;2023-03-23T08:58:22;11.63;;;5.03;;
64907;SDS011;64365;-1.756;110.040;2023-03-23T09:00:49;14.45;;;5.25;;
64907;SDS011;64365;-1.756;110.040;2023-03-23T09:03:15;11.10;;;4.82;;
64907;SDS011;64365;-1.756;110.040;2023-03-23T09:05:43;15.30;;;5.47;;
64907;SDS011;64365;-1.756;110.040;2023-03-23T09:08:11;12.65;;;5.05;;
64907;SDS011;64365;-1.756;110.040;2023-03-23T09:10:38;16.45;;;5.57;;
64907;SDS011;64365;-1.756;110.040;2023-03-23T09:13:05;15.38;;;6.03;;
64907;SDS011;64365;-1.756;110.040;2023-03-23T09:15:32;14.68;;;5.22;;
64907;SDS011;64365;-1.756;110.040;2023-03-23T09:17:59;13.88;;;5.18;;
64907;SDS011;64365;-1.756;110.040;2023-03-23T09:20:27;15.70;;;5.82;;
64907;SDS011;64365;-1.756;110.040;2023-03-23T09:22:56;14.00;;;5.03;;
64907;SDS011;64365;-1.756;110.040;2023-03-23T09:25:24;14.20;;;4.78;;
64907;SDS011;64365;-1.756;110.040;2023-03-23T09:27:52;15.50;;;5.18;;
64907;SDS011;64365;-1.756;110.040;2023-03-23T09:30:21;18.77;;;6.32;;
64907;SDS011;64365;-1.756;110.040;2023-03-23T09:32:51;19.17;;;7.32;;
64907;SDS011;64365;-1.756;110.040;2023-03-23T09:35:18;12.88;;;4.90;;
64907;SDS011;64365;-1.756;110.040;2023-03-23T09:37:46;16.50;;;6.65;;
64907;SDS011;64365;-1.756;110.040;2023-03-23T09:40:17;16.05;;;5.65;;
64907;SDS011;64365;-1.756;110.040;2023-03-23T09:42:53;13.48;;;5.07;;
64907;SDS011;64365;-1.756;110.040;2023-03-23T09:45:33;13.88;;;5.65;;
64907;SDS011;64365;-1.756;110.040;2023-03-23T09:48:19;18.50;;;6.07;;
64907;SDS011;64365;-1.756;110.040;2023-03-23T09:51:04;20.02;;;5.35;;
64907;SDS011;64365;-1.756;110.040;2023-03-23T09:53:38;23.00;;;7.22;;
64907;SDS011;64365;-1.756;110.040;2023-03-23T09:56:10;14.02;;;5.70;;
64907;SDS011;64365;-1.756;110.040;2023-03-23T09:58:41;18.27;;;5.70;;
64907;SDS011;64365;-1.756;110.040;2023-03-23T10:01:14;19.00;;;6.25;;
64907;SDS011;64365;-1.756;110.040;2023-03-23T10:06:14;13.60;;;6.05;;
64907;SDS011;64365;-1.756;110.040;2023-03-23T10:08:44;19.70;;;5.88;;
64907;SDS011;64365;-1.756;110.040;2023-03-23T10:11:14;20.05;;;5.85;;
64907;SDS011;64365;-1.756;110.040;2023-03-23T10:14:00;17.65;;;5.53;;
64907;SDS011;64365;-1.756;110.040;2023-03-23T10:16:37;18.75;;;5.20;;
64907;SDS011;64365;-1.756;110.040;2023-03-23T10:19:10;14.70;;;5.05;;
64907;SDS011;64365;-1.756;110.040;2023-03-23T10:21:41;21.48;;;6.95;;
64907;SDS011;64365;-1.756;110.040;2023-03-23T10:24:13;15.00;;;5.32;;
64907;SDS011;64365;-1.756;110.040;2023-03-23T10:26:47;13.82;;;5.45;;
64907;SDS011;64365;-1.756;110.040;2023-03-23T10:29:21;13.10;;;4.68;;
64907;SDS011;64365;-1.756;110.040;2023-03-23T10:31:52;15.32;;;5.05;;
64907;SDS011;64365;-1.756;110.040;2023-03-23T10:34:28;13.60;;;5.00;;
64907;SDS011;64365;-1.756;110.040;2023-03-23T10:39:32;21.23;;;5.57;;
64907;SDS011;64365;-1.756;110.040;2023-03-23T10:42:20;19.05;;;5.43;;
64907;SDS011;64365;-1.756;110.040;2023-03-23T10:44:49;9.82;;;4.82;;
64907;SDS011;64365;-1.756;110.040;2023-03-23T10:47:16;17.15;;;5.45;;
64907;SDS011;64365;-1.756;110.040;2023-03-23T10:49:45;17.40;;;4.75;;
64907;SDS011;64365;-1.756;110.040;2023-03-23T10:52:20;14.00;;;5.50;;
64907;SDS011;64365;-1.756;110.040;2023-03-23T10:54:55;17.00;;;5.45;;
64907;SDS011;64365;-1.756;110.040;2023-03-23T10:57:26;14.75;;;5.18;;
64907;SDS011;64365;-1.756;110.040;2023-03-23T10:59:58;13.02;;;4.43;;
64907;SDS011;64365;-1.756;110.040;2023-03-23T11:02:31;11.90;;;4.70;;
64907;SDS011;64365;-1.756;110.040;2023-03-23T11:05:00;16.75;;;5.22;;
64907;SDS011;64365;-1.756;110.040;2023-03-23T11:07:29;16.05;;;5.10;;
64907;SDS011;64365;-1.756;110.040;2023-03-23T11:10:03;23.00;;;4.75;;
64907;SDS011;64365;-1.756;110.040;2023-03-23T11:12:35;15.32;;;4.97;;
64907;SDS011;64365;-1.756;110.040;2023-03-23T11:15:09;18.13;;;5.68;;
64907;SDS011;64365;-1.756;110.040;2023-03-23T11:17:54;13.32;;;5.22;;
64907;SDS011;64365;-1.756;110.040;2023-03-23T11:20:22;19.67;;;5.40;;
64907;SDS011;64365;-1.756;110.040;2023-03-23T11:22:49;18.42;;;5.32;;
64907;SDS011;64365;-1.756;110.040;2023-03-23T11:25:15;19.83;;;4.57;;
64907;SDS011;64365;-1.756;110.040;2023-03-23T11:27:44;17.80;;;4.72;;
64907;SDS011;64365;-1.756;110.040;2023-03-23T11:30:11;15.65;;;5.13;;
64907;SDS011;64365;-1.756;110.040;2023-03-23T11:32:47;15.95;;;5.05;;
64907;SDS011;64365;-1.756;110.040;2023-03-23T11:35:15;15.52;;;5.18;;
64907;SDS011;64365;-1.756;110.040;2023-03-23T11:37:46;12.18;;;4.38;;
64907;SDS011;64365;-1.756;110.040;2023-03-23T11:40:15;18.02;;;6.10;;
64907;SDS011;64365;-1.756;110.040;2023-03-23T11:42:45;15.60;;;4.97;;
64907;SDS011;64365;-1.756;110.040;2023-03-23T11:45:14;17.63;;;4.80;;
64907;SDS011;64365;-1.756;110.040;2023-03-23T11:47:45;13.98;;;5.05;;
64907;SDS011;64365;-1.756;110.040;2023-03-23T11:50:20;15.30;;;5.03;;
64907;SDS011;64365;-1.756;110.040;2023-03-23T11:52:52;16.25;;;5.18;;
64907;SDS011;64365;-1.756;110.040;2023-03-23T11:55:28;18.40;;;4.68;;
64907;SDS011;64365;-1.756;110.040;2023-03-23T11:58:02;14.67;;;4.80;;
64907;SDS011;64365;-1.756;110.040;2023-03-23T12:00:40;17.75;;;5.50;;
64907;SDS011;64365;-1.756;110.040;2023-03-23T12:03:12;16.65;;;4.90;;
64907;SDS011;64365;-1.756;110.040;2023-03-23T12:05:43;16.27;;;4.60;;
64907;SDS011;64365;-1.756;110.040;2023-03-23T12:08:20;17.92;;;5.20;;
64907;SDS011;64365;-1.756;110.040;2023-03-23T12:11:01;18.05;;;5.10;;
64907;SDS011;64365;-1.756;110.040;2023-03-23T12:13:45;22.30;;;5.20;;
64907;SDS011;64365;-1.756;110.040;2023-03-23T12:16:29;15.90;;;4.53;;
64907;SDS011;64365;-1.756;110.040;2023-03-23T12:19:06;16.88;;;5.15;;
64907;SDS011;64365;-1.756;110.040;2023-03-23T12:21:41;17.90;;;4.80;;
64907;SDS011;64365;-1.756;110.040;2023-03-23T12:24:19;16.10;;;4.70;;
64907;SDS011;64365;-1.756;110.040;2023-03-23T12:26:55;20.50;;;5.00;;
64907;SDS011;64365;-1.756;110.040;2023-03-23T12:29:39;18.35;;;5.15;;
64907;SDS011;64365;-1.756;110.040;2023-03-23T12:35:15;17.40;;;4.78;;
64907;SDS011;64365;-1.756;110.040;2023-03-23T12:37:52;14.15;;;5.13;;
64907;SDS011;64365;-1.756;110.040;2023-03-23T12:40:36;16.70;;;4.85;;
64907;SDS011;64365;-1.756;110.040;2023-03-23T12:43:13;16.50;;;5.00;;
64907;SDS011;64365;-1.756;110.040;2023-03-23T12:48:41;13.63;;;4.70;;
64907;SDS011;64365;-1.756;110.040;2023-03-23T12:51:14;12.63;;;4.00;;
64907;SDS011;64365;-1.756;110.040;2023-03-23T12:53:50;15.48;;;5.05;;
64907;SDS011;64365;-1.756;110.040;2023-03-23T12:56:24;13.90;;;3.88;;
64907;SDS011;64365;-1.756;110.040;2023-03-23T13:01:31;12.98;;;3.97;;
64907;SDS011;64365;-1.756;110.040;2023-03-23T13:04:05;15.95;;;4.10;;
64907;SDS011;64365;-1.756;110.040;2023-03-23T13:06:37;11.38;;;4.28;;
64907;SDS011;64365;-1.756;110.040;2023-03-23T13:09:05;9.82;;;4.45;;
64907;SDS011;64365;-1.756;110.040;2023-03-23T13:11:38;12.80;;;4.45;;
64907;SDS011;64365;-1.756;110.040;2023-03-23T13:14:16;12.32;;;4.88;;
64907;SDS011;64365;-1.756;110.040;2023-03-23T13:16:54;13.15;;;4.30;;
64907;SDS011;64365;-1.756;110.040;2023-03-23T13:19:29;15.73;;;4.00;;
64907;SDS011;64365;-1.756;110.040;2023-03-23T13:22:01;16.15;;;4.75;;
64907;SDS011;64365;-1.756;110.040;2023-03-23T13:24:33;13.23;;;4.72;;
64907;SDS011;64365;-1.756;110.040;2023-03-23T13:27:04;13.23;;;4.47;;
64907;SDS011;64365;-1.756;110.040;2023-03-23T13:29:31;17.13;;;5.07;;
64907;SDS011;64365;-1.756;110.040;2023-03-23T13:32:10;22.70;;;5.90;;
64907;SDS011;64365;-1.756;110.040;2023-03-23T13:34:41;15.85;;;4.28;;
64907;SDS011;64365;-1.756;110.040;2023-03-23T13:37:10;13.60;;;4.50;;
64907;SDS011;64365;-1.756;110.040;2023-03-23T13:39:47;14.18;;;4.55;;
64907;SDS011;64365;-1.756;110.040;2023-03-23T13:42:18;19.02;;;4.18;;
64907;SDS011;64365;-1.756;110.040;2023-03-23T13:44:55;11.40;;;4.03;;
64907;SDS011;64365;-1.756;110.040;2023-03-23T13:47:39;11.80;;;3.78;;
64907;SDS011;64365;-1.756;110.040;2023-03-23T13:50:11;9.32;;;4.05;;
64907;SDS011;64365;-1.756;110.040;2023-03-23T13:52:46;10.97;;;4.43;;
64907;SDS011;64365;-1.756;110.040;2023-03-23T13:55:18;12.80;;;4.60;;
64907;SDS011;64365;-1.756;110.040;2023-03-23T13:57:50;11.23;;;4.47;;
64907;SDS011;64365;-1.756;110.040;2023-03-23T14:00:26;10.65;;;4.18;;
64907;SDS011;64365;-1.756;110.040;2023-03-23T14:03:02;13.15;;;4.95;;
64907;SDS011;64365;-1.756;110.040;2023-03-23T14:05:34;14.02;;;4.60;;
64907;SDS011;64365;-1.756;110.040;2023-03-23T14:08:02;17.27;;;5.47;;
64907;SDS011;64365;-1.756;110.040;2023-03-23T14:10:38;13.18;;;5.10;;
64907;SDS011;64365;-1.756;110.040;2023-03-23T14:13:09;25.88;;;5.95;;
64907;SDS011;64365;-1.756;110.040;2023-03-23T14:15:42;14.18;;;5.00;;
64907;SDS011;64365;-1.756;110.040;2023-03-23T14:18:15;20.23;;;6.20;;
64907;SDS011;64365;-1.756;110.040;2023-03-23T14:20:42;23.70;;;6.35;;
64907;SDS011;64365;-1.756;110.040;2023-03-23T14:23:14;16.42;;;5.22;;
64907;SDS011;64365;-1.756;110.040;2023-03-23T14:25:42;16.42;;;5.53;;
64907;SDS011;64365;-1.756;110.040;2023-03-23T14:28:16;22.17;;;6.63;;
64907;SDS011;64365;-1.756;110.040;2023-03-23T14:30:43;17.15;;;5.40;;
64907;SDS011;64365;-1.756;110.040;2023-03-23T14:33:10;15.20;;;5.22;;
64907;SDS011;64365;-1.756;110.040;2023-03-23T14:35:41;19.85;;;5.43;;
64907;SDS011;64365;-1.756;110.040;2023-03-23T14:38:12;17.80;;;4.50;;
64907;SDS011;64365;-1.756;110.040;2023-03-23T14:40:43;19.25;;;4.47;;
64907;SDS011;64365;-1.756;110.040;2023-03-23T14:43:10;14.52;;;4.75;;
64907;SDS011;64365;-1.756;110.040;2023-03-23T14:45:41;12.98;;;3.97;;
64907;SDS011;64365;-1.756;110.040;2023-03-23T14:48:10;17.33;;;4.43;;